sensor_id;sensor_type;location;lat;lon;timestamp;temperature;humidity
12254;DHT22;6189;52.526;13.390;2024-03-29T18:50:54;15.00;99.90
12254;DHT22;6189;52.526;13.390;2024-03-29T18:53:42;14.30;99.90
12254;DHT22;6189;52.526;13.390;2024-03-29T18:56:30;14.60;99.90
12254;DHT22;6189;52.526;13.390;2024-03-29T18:59:18;14.80;99.90
12254;DHT22;6189;52.526;13.390;2024-03-29T19:02:07;15.00;99.90
12254;DHT22;6189;52.526;13.390;2024-03-29T19:04:55;15.10;99.90
12254;DHT22;6189;52.526;13.390;2024-03-29T19:07:42;15.20;99.90
12254;DHT22;6189;52.526;13.390;2024-03-29T19:10:29;15.20;99.90
12254;DHT22;6189;52.526;13.390;2024-03-29T19:13:17;15.30;99.90
12254;DHT22;6189;52.526;13.390;2024-03-29T19:16:03;15.30;99.90
12254;DHT22;6189;52.526;13.390;2024-03-29T19:18:51;15.30;99.90
12254;DHT22;6189;52.526;13.390;2024-03-29T19:21:37;15.30;99.90
12254;DHT22;6189;52.526;13.390;2024-03-29T19:27:14;15.30;99.90
12254;DHT22;6189;52.526;13.390;2024-03-29T19:30:03;15.40;99.90
12254;DHT22;6189;52.526;13.390;2024-03-29T19:32:54;15.40;99.90
12254;DHT22;6189;52.526;13.390;2024-03-29T19:35:42;15.30;99.90
12254;DHT22;6189;52.526;13.390;2024-03-29T19:38:28;15.30;99.90
12254;DHT22;6189;52.526;13.390;2024-03-29T19:41:16;15.40;99.90
12254;DHT22;6189;52.526;13.390;2024-03-29T19:44:03;15.40;99.90
12254;DHT22;6189;52.526;13.390;2024-03-29T19:46:51;16.70;99.90
12254;DHT22;6189;52.526;13.390;2024-03-29T19:49:38;15.30;99.90
12254;DHT22;6189;52.526;13.390;2024-03-29T19:52:27;15.20;99.90
12254;DHT22;6189;52.526;13.390;2024-03-29T19:55:15;15.30;99.90
12254;DHT22;6189;52.526;13.390;2024-03-29T19:58:02;15.20;99.90
12254;DHT22;6189;52.526;13.390;2024-03-29T20:00:51;15.30;99.90
12254;DHT22;6189;52.526;13.390;2024-03-29T20:03:37;15.20;99.90
12254;DHT22;6189;52.526;13.390;2024-03-29T20:06:24;15.20;99.90
12254;DHT22;6189;52.526;13.390;2024-03-29T20:09:11;15.20;99.90
12254;DHT22;6189;52.526;13.390;2024-03-29T20:11:58;15.20;99.90
12254;DHT22;6189;52.526;13.390;2024-03-29T20:14:44;15.20;99.90
12254;DHT22;6189;52.526;13.390;2024-03-29T20:17:32;15.20;99.90
12254;DHT22;6189;52.526;13.390;2024-03-29T20:20:19;15.20;99.90
12254;DHT22;6189;52.526;13.390;2024-03-29T20:23:06;15.20;99.90
12254;DHT22;6189;52.526;13.390;2024-03-29T20:25:53;15.20;99.90
12254;DHT22;6189;52.526;13.390;2024-03-29T20:28:41;15.20;99.90
12254;DHT22;6189;52.526;13.390;2024-03-29T20:31:28;15.20;99.90
12254;DHT22;6189;52.526;13.390;2024-03-29T20:34:16;15.10;99.90
12254;DHT22;6189;52.526;13.390;2024-03-29T20:37:04;15.10;99.90
12254;DHT22;6189;52.526;13.390;2024-03-29T20:39:51;15.10;99.90
12254;DHT22;6189;52.526;13.390;2024-03-29T20:42:40;15.00;99.90
12254;DHT22;6189;52.526;13.390;2024-03-29T20:45:26;15.00;99.90
12254;DHT22;6189;52.526;13.390;2024-03-29T20:48:13;15.00;99.90
12254;DHT22;6189;52.526;13.390;2024-03-29T20:51:01;15.00;99.90
12254;DHT22;6189;52.526;13.390;2024-03-29T20:53:48;15.00;99.90
12254;DHT22;6189;52.526;13.390;2024-03-29T20:56:34;14.90;99.90
12254;DHT22;6189;52.526;13.390;2024-03-29T20:59:22;14.90;99.90
12254;DHT22;6189;52.526;13.390;2024-03-29T21:02:08;15.00;99.90
12254;DHT22;6189;52.526;13.390;2024-03-29T21:05:13;15.00;99.90
12254;DHT22;6189;52.526;13.390;2024-03-29T21:08:21;15.00;99.90
12254;DHT22;6189;52.526;13.390;2024-03-29T21:11:08;15.00;99.90
12254;DHT22;6189;52.526;13.390;2024-03-29T21:13:55;15.00;99.90
12254;DHT22;6189;52.526;13.390;2024-03-29T21:16:44;14.90;99.90
12254;DHT22;6189;52.526;13.390;2024-03-29T21:19:31;15.00;99.90
12254;DHT22;6189;52.526;13.390;2024-03-29T21:22:17;14.90;99.90
12254;DHT22;6189;52.526;13.390;2024-03-29T21:25:06;15.00;99.90
12254;DHT22;6189;52.526;13.390;2024-03-29T21:27:52;14.90;99.90
12254;DHT22;6189;52.526;13.390;2024-03-29T21:30:41;14.90;99.90
12254;DHT22;6189;52.526;13.390;2024-03-29T21:33:27;15.00;99.90
12254;DHT22;6189;52.526;13.390;2024-03-29T21:36:14;14.90;99.90
12254;DHT22;6189;52.526;13.390;2024-03-29T21:39:00;14.90;99.90
12254;DHT22;6189;52.526;13.390;2024-03-29T21:41:50;14.90;99.90
12254;DHT22;6189;52.526;13.390;2024-03-29T21:44:36;14.80;99.90
12254;DHT22;6189;52.526;13.390;2024-03-29T21:47:23;14.80;99.90
12254;DHT22;6189;52.526;13.390;2024-03-29T21:50:11;14.80;99.90
12254;DHT22;6189;52.526;13.390;2024-03-29T21:52:58;14.80;99.90
12254;DHT22;6189;52.526;13.390;2024-03-29T21:55:46;14.90;99.90
12254;DHT22;6189;52.526;13.390;2024-03-29T21:58:34;14.80;99.90
12254;DHT22;6189;52.526;13.390;2024-03-29T22:01:20;14.80;99.90
12254;DHT22;6189;52.526;13.390;2024-03-29T22:04:10;14.80;99.90
12254;DHT22;6189;52.526;13.390;2024-03-29T22:06:57;14.80;99.90
12254;DHT22;6189;52.526;13.390;2024-03-29T22:09:44;14.80;99.90
12254;DHT22;6189;52.526;13.390;2024-03-29T22:12:30;14.90;99.90
12254;DHT22;6189;52.526;13.390;2024-03-29T22:15:19;14.80;99.90
12254;DHT22;6189;52.526;13.390;2024-03-29T22:18:06;14.80;99.90
12254;DHT22;6189;52.526;13.390;2024-03-29T22:20:55;14.80;99.90
12254;DHT22;6189;52.526;13.390;2024-03-29T22:23:41;14.80;99.90
12254;DHT22;6189;52.526;13.390;2024-03-29T22:26:28;14.80;99.90
12254;DHT22;6189;52.526;13.390;2024-03-29T22:29:16;14.80;99.90
12254;DHT22;6189;52.526;13.390;2024-03-29T22:32:05;14.70;99.90
12254;DHT22;6189;52.526;13.390;2024-03-29T22:34:51;14.70;99.90
12254;DHT22;6189;52.526;13.390;2024-03-29T22:37:38;14.70;99.90
12254;DHT22;6189;52.526;13.390;2024-03-29T22:40:24;14.70;99.90
12254;DHT22;6189;52.526;13.390;2024-03-29T22:43:12;14.60;99.90
12254;DHT22;6189;52.526;13.390;2024-03-29T22:45:58;14.70;99.90
12254;DHT22;6189;52.526;13.390;2024-03-29T22:48:47;14.60;99.90
12254;DHT22;6189;52.526;13.390;2024-03-29T22:51:35;14.60;99.90
12254;DHT22;6189;52.526;13.390;2024-03-29T22:54:21;14.60;99.90
12254;DHT22;6189;52.526;13.390;2024-03-29T22:57:08;14.60;99.90
12254;DHT22;6189;52.526;13.390;2024-03-29T22:59:54;14.70;99.90
12254;DHT22;6189;52.526;13.390;2024-03-29T23:02:41;14.70;99.90
12254;DHT22;6189;52.526;13.390;2024-03-29T23:05:29;14.70;99.90
12254;DHT22;6189;52.526;13.390;2024-03-29T23:08:16;14.70;99.90
12254;DHT22;6189;52.526;13.390;2024-03-29T23:11:02;14.70;99.90
12254;DHT22;6189;52.526;13.390;2024-03-29T23:13:50;14.70;99.90
12254;DHT22;6189;52.526;13.390;2024-03-29T23:16:36;14.70;99.90
12254;DHT22;6189;52.526;13.390;2024-03-29T23:19:23;14.60;99.90
12254;DHT22;6189;52.526;13.390;2024-03-29T23:22:11;14.60;99.90
12254;DHT22;6189;52.526;13.390;2024-03-29T23:24:58;14.60;99.90
12254;DHT22;6189;52.526;13.390;2024-03-29T23:27:44;14.50;99.90
12254;DHT22;6189;52.526;13.390;2024-03-29T23:30:31;14.50;99.90
12254;DHT22;6189;52.526;13.390;2024-03-29T23:33:17;14.50;99.90
12254;DHT22;6189;52.526;13.390;2024-03-29T23:36:05;14.50;99.90
12254;DHT22;6189;52.526;13.390;2024-03-29T23:38:52;14.50;99.90
12254;DHT22;6189;52.526;13.390;2024-03-29T23:41:40;14.50;99.90
12254;DHT22;6189;52.526;13.390;2024-03-29T23:44:26;14.50;99.90
12254;DHT22;6189;52.526;13.390;2024-03-29T23:47:13;14.50;99.90
12254;DHT22;6189;52.526;13.390;2024-03-29T23:49:59;14.50;99.90
12254;DHT22;6189;52.526;13.390;2024-03-29T23:52:47;14.50;99.90
12254;DHT22;6189;52.526;13.390;2024-03-29T23:55:34;14.50;99.90
12254;DHT22;6189;52.526;13.390;2024-03-29T23:58:22;14.50;99.90
